Finike, Turkey
Current Conditions -  °F | °C
As of 10:50 PM on Sunday 25 Jan 2015 (Local Time) from LTAI Reporting Station
Rain Showers Rain Showers  
Wind Chill: 54°   Ceiling: 3000
Heat Index: 54°   Visibility: 4mi
Dew Point: 48°   Wind: 7mph
Humidity: 82%   Direction: 50°NE
Pressure: 30.03"   Gusts: NA
Location:  36.3°N, 30.14°E
Report Text: LTAI 251950Z 05006KT 020V080 7000 -SHRA FEW015CB BKN030 12/09 Q1017 RESHRA NOSIG
Loading
Personal Weather Stations






























Interactive Weather Map New forecast layout! Learn more

10-Day Weather Forecast

Advertisements
Track Severe Weather on mobile